createdAt,value
2022-09-20T00:00:43.161Z,0.00
2022-09-20T00:01:43.128Z,0.00
2022-09-20T00:02:43.070Z,0.00
2022-09-20T00:03:43.061Z,0.00
2022-09-20T00:04:43.103Z,0.00
2022-09-20T00:05:43.045Z,0.00
2022-09-20T00:06:43.079Z,0.00
2022-09-20T00:07:43.034Z,0.00
2022-09-20T00:08:43.025Z,0.00
2022-09-20T00:09:43.045Z,0.00
2022-09-20T00:10:43.023Z,0.00
2022-09-20T00:11:43.006Z,0.00
2022-09-20T00:12:43.014Z,0.00
2022-09-20T00:13:42.990Z,0.00
2022-09-20T00:14:42.991Z,0.00
2022-09-20T00:15:43.007Z,0.00
2022-09-20T00:16:43.070Z,0.00
2022-09-20T00:17:42.988Z,0.00
2022-09-20T00:18:42.966Z,0.00
2022-09-20T00:19:42.960Z,0.00
2022-09-20T00:20:42.984Z,0.00
2022-09-20T00:21:42.942Z,0.00
2022-09-20T00:22:42.937Z,0.00
2022-09-20T00:23:43.125Z,0.00
2022-09-20T00:24:48.166Z,0.00
2022-09-20T00:25:45.002Z,0.00
2022-09-20T00:26:42.934Z,0.00
2022-09-20T00:27:42.954Z,0.00
2022-09-20T00:28:42.937Z,0.00
2022-09-20T00:29:42.994Z,0.00
2022-09-20T00:30:42.902Z,0.00
2022-09-20T00:31:43.211Z,0.00
2022-09-20T00:32:42.881Z,0.00
2022-09-20T00:33:42.920Z,0.00
2022-09-20T00:34:42.858Z,0.00
2022-09-20T00:35:42.893Z,0.00
2022-09-20T00:36:42.884Z,0.00
2022-09-20T00:37:42.830Z,0.00
2022-09-20T00:38:42.850Z,0.00
2022-09-20T00:39:42.818Z,0.00
2022-09-20T00:40:42.951Z,0.00
2022-09-20T00:41:42.822Z,0.00
2022-09-20T00:42:42.798Z,0.00
2022-09-20T00:43:42.827Z,0.00
2022-09-20T00:44:42.832Z,0.00
2022-09-20T00:45:42.828Z,0.00
2022-09-20T00:46:42.779Z,0.00
2022-09-20T00:47:42.850Z,0.00
2022-09-20T00:48:42.774Z,0.00
2022-09-20T00:49:43.758Z,0.00
2022-09-20T00:50:42.778Z,0.00
2022-09-20T00:51:42.762Z,0.00
2022-09-20T00:52:42.741Z,0.00
2022-09-20T00:53:42.745Z,0.00
2022-09-20T00:54:42.743Z,0.00
2022-09-20T00:55:42.718Z,0.00
2022-09-20T00:56:42.733Z,0.00
2022-09-20T00:57:42.746Z,0.00
2022-09-20T00:58:42.710Z,0.00
2022-09-20T00:59:42.692Z,0.00
2022-09-20T01:00:42.797Z,0.00
2022-09-20T01:01:42.731Z,0.00
2022-09-20T01:02:42.757Z,0.00
2022-09-20T01:03:42.753Z,0.00
2022-09-20T01:04:42.643Z,0.00
2022-09-20T01:05:42.656Z,0.00
2022-09-20T01:06:42.621Z,0.00
2022-09-20T01:07:42.613Z,0.00
2022-09-20T01:08:42.661Z,0.00
2022-09-20T01:09:42.615Z,0.00
2022-09-20T01:10:42.602Z,0.00
2022-09-20T01:11:42.593Z,0.00
2022-09-20T01:12:42.569Z,0.00
2022-09-20T01:13:42.597Z,0.00
2022-09-20T01:14:42.554Z,0.00
2022-09-20T01:15:42.578Z,0.00
2022-09-20T01:16:42.589Z,0.00
2022-09-20T01:17:42.558Z,0.00
2022-09-20T01:18:42.542Z,0.00
2022-09-20T01:19:42.534Z,0.00
2022-09-20T01:20:42.521Z,0.00
2022-09-20T01:21:42.514Z,0.00
2022-09-20T01:22:42.541Z,0.00
2022-09-20T01:23:42.509Z,0.00
2022-09-20T01:24:42.489Z,0.00
2022-09-20T01:25:42.494Z,0.00
2022-09-20T01:26:42.495Z,0.00
2022-09-20T01:27:42.494Z,0.00
2022-09-20T01:28:42.461Z,0.00
2022-09-20T01:29:42.499Z,0.00
2022-09-20T01:30:42.460Z,0.00
2022-09-20T01:31:42.500Z,0.00
2022-09-20T01:32:42.480Z,0.00
2022-09-20T01:33:42.449Z,0.00
2022-09-20T01:34:42.437Z,0.00
2022-09-20T01:35:42.433Z,0.00
2022-09-20T01:36:42.418Z,0.00
2022-09-20T01:37:42.425Z,0.00
2022-09-20T01:38:42.441Z,0.00
2022-09-20T01:39:42.401Z,0.00
2022-09-20T01:40:42.440Z,0.00
2022-09-20T01:41:42.388Z,0.00
2022-09-20T01:42:42.408Z,0.00
2022-09-20T01:43:42.374Z,0.00
2022-09-20T01:44:42.362Z,0.00
2022-09-20T01:45:42.452Z,0.00
2022-09-20T01:46:42.351Z,0.00
2022-09-20T01:47:42.363Z,0.00
2022-09-20T01:48:42.351Z,0.00
2022-09-20T01:49:42.343Z,0.00
2022-09-20T01:50:42.343Z,0.00
2022-09-20T01:51:42.323Z,0.00
2022-09-20T01:52:42.306Z,0.00
2022-09-20T01:53:42.307Z,0.00
2022-09-20T01:54:42.307Z,0.00
2022-09-20T01:55:42.287Z,0.00
2022-09-20T01:56:42.284Z,0.00
2022-09-20T01:57:42.281Z,0.00
2022-09-20T01:58:42.307Z,0.00
2022-09-20T01:59:42.263Z,0.00
2022-09-20T02:00:42.297Z,0.00
2022-09-20T02:01:42.241Z,0.00
2022-09-20T02:03:15.754Z,0.00
2022-09-20T02:03:42.248Z,0.00
2022-09-20T02:04:42.238Z,0.00
2022-09-20T02:05:42.253Z,0.00
2022-09-20T02:06:43.270Z,0.00
2022-09-20T02:07:42.235Z,0.00
2022-09-20T02:08:42.257Z,0.00
2022-09-20T02:09:42.193Z,0.00
2022-09-20T02:10:42.185Z,0.00
2022-09-20T02:11:42.191Z,0.00
2022-09-20T02:12:42.193Z,0.00
2022-09-20T02:13:42.189Z,0.00
2022-09-20T02:14:42.157Z,0.00
2022-09-20T02:15:42.166Z,0.00
2022-09-20T02:16:42.224Z,0.00
2022-09-20T02:17:42.150Z,0.00
2022-09-20T02:18:42.131Z,0.00
2022-09-20T02:19:42.155Z,0.00
2022-09-20T02:20:42.125Z,0.00
2022-09-20T02:21:42.117Z,0.00
2022-09-20T02:22:42.156Z,0.00
2022-09-20T02:23:42.107Z,0.00
2022-09-20T02:24:42.114Z,0.00
2022-09-20T02:25:42.102Z,0.00
2022-09-20T02:26:42.115Z,0.00
2022-09-20T02:27:42.151Z,0.00
2022-09-20T02:28:42.093Z,0.00
2022-09-20T02:29:42.069Z,0.00
2022-09-20T02:30:42.082Z,0.00
2022-09-20T02:31:42.128Z,0.00
2022-09-20T02:32:42.053Z,0.00
2022-09-20T02:33:42.093Z,0.00
2022-09-20T02:34:42.035Z,0.00
2022-09-20T02:35:42.040Z,0.00
2022-09-20T02:36:42.006Z,0.00
2022-09-20T02:37:42.006Z,0.00
2022-09-20T02:38:42.258Z,0.00
2022-09-20T02:39:42.742Z,0.00
2022-09-20T02:40:42.104Z,0.00
2022-09-20T02:41:41.993Z,0.00
2022-09-20T02:42:41.995Z,0.00
2022-09-20T02:43:41.998Z,0.00
2022-09-20T02:44:41.966Z,0.00
2022-09-20T02:45:42.058Z,0.00
2022-09-20T02:46:41.949Z,0.00
2022-09-20T02:47:41.938Z,0.00
2022-09-20T02:48:42.038Z,0.00
2022-09-20T02:49:41.951Z,0.00
2022-09-20T02:50:41.929Z,0.00
2022-09-20T02:51:41.957Z,0.00
2022-09-20T02:52:41.930Z,0.00
2022-09-20T02:53:42.062Z,0.00
2022-09-20T02:54:41.914Z,0.00
2022-09-20T02:55:41.926Z,0.00
2022-09-20T02:56:41.906Z,0.00
2022-09-20T02:57:41.880Z,0.00
2022-09-20T02:58:41.865Z,0.00
2022-09-20T02:59:41.894Z,0.00
2022-09-20T03:00:41.869Z,0.00
2022-09-20T03:01:41.937Z,0.00
2022-09-20T03:02:41.957Z,0.00
2022-09-20T03:03:41.828Z,0.00
2022-09-20T03:04:41.832Z,0.00
2022-09-20T03:05:41.842Z,0.00
2022-09-20T03:06:41.882Z,0.00
2022-09-20T03:07:41.834Z,0.00
2022-09-20T03:08:41.805Z,0.00
2022-09-20T03:09:41.810Z,0.00
2022-09-20T03:10:41.810Z,0.00
2022-09-20T03:11:41.835Z,0.00
2022-09-20T03:12:41.788Z,0.00
2022-09-20T03:13:41.878Z,0.00
2022-09-20T03:14:41.774Z,0.00
2022-09-20T03:15:41.793Z,0.00
2022-09-20T03:16:41.833Z,0.00
2022-09-20T03:17:41.742Z,0.00
2022-09-20T03:18:41.741Z,0.00
2022-09-20T03:19:41.774Z,0.00
2022-09-20T03:20:41.733Z,0.00
2022-09-20T03:21:41.789Z,0.00
2022-09-20T03:22:41.741Z,0.00
2022-09-20T03:23:41.713Z,0.00
2022-09-20T03:24:41.706Z,0.00
2022-09-20T03:25:41.705Z,0.00
2022-09-20T03:26:41.710Z,0.00
2022-09-20T03:27:41.682Z,0.00
2022-09-20T03:28:41.693Z,0.00
2022-09-20T03:29:41.674Z,0.00
2022-09-20T03:30:41.738Z,0.00
2022-09-20T03:31:41.818Z,0.00
2022-09-20T03:32:41.709Z,0.00
2022-09-20T03:33:41.717Z,0.00
2022-09-20T03:34:41.673Z,0.00
2022-09-20T03:35:41.660Z,0.00
2022-09-20T03:36:42.357Z,0.00
2022-09-20T03:37:41.609Z,0.00
2022-09-20T03:38:41.604Z,0.00
2022-09-20T03:39:41.637Z,0.00
2022-09-20T03:40:46.223Z,0.00
2022-09-20T03:41:43.721Z,0.00
2022-09-20T03:42:41.615Z,0.00
2022-09-20T03:43:41.627Z,0.00
2022-09-20T03:44:41.579Z,0.00
2022-09-20T03:45:41.662Z,0.00
2022-09-20T03:46:41.794Z,0.00
2022-09-20T03:47:41.592Z,0.00
2022-09-20T03:48:41.576Z,0.00
2022-09-20T03:49:41.564Z,0.00
2022-09-20T03:50:41.544Z,0.00
2022-09-20T03:51:41.578Z,0.00
2022-09-20T03:52:41.677Z,0.00
2022-09-20T03:53:41.649Z,0.00
2022-09-20T03:54:41.577Z,0.00
2022-09-20T03:55:41.549Z,0.00
2022-09-20T03:56:41.597Z,0.00
2022-09-20T03:57:41.625Z,0.00
2022-09-20T03:58:41.533Z,0.00
2022-09-20T03:59:41.598Z,0.00
2022-09-20T04:00:41.546Z,0.00
2022-09-20T04:01:41.525Z,0.00
2022-09-20T04:02:41.607Z,0.00
2022-09-20T04:03:41.563Z,0.00
2022-09-20T04:04:41.490Z,0.00
2022-09-20T04:05:41.530Z,0.00
2022-09-20T04:06:41.450Z,0.00
2022-09-20T04:07:41.447Z,0.00
2022-09-20T04:08:41.442Z,0.00
2022-09-20T04:09:41.428Z,0.00
2022-09-20T04:10:41.406Z,0.00
2022-09-20T04:11:41.403Z,0.00
2022-09-20T04:12:41.405Z,0.00
2022-09-20T04:13:41.423Z,0.00
2022-09-20T04:14:41.446Z,0.00
2022-09-20T04:15:41.387Z,0.00
2022-09-20T04:16:41.502Z,0.00
2022-09-20T04:17:41.392Z,0.00
2022-09-20T04:18:41.425Z,0.00
2022-09-20T04:19:41.351Z,0.00
2022-09-20T04:20:41.600Z,0.00
2022-09-20T04:21:41.441Z,0.00
2022-09-20T04:22:41.358Z,0.00
2022-09-20T04:23:41.343Z,0.00
2022-09-20T04:24:41.329Z,0.00
2022-09-20T04:25:44.058Z,0.00
2022-09-20T04:26:42.292Z,0.00
2022-09-20T04:27:41.313Z,0.00
2022-09-20T04:28:41.333Z,0.00
2022-09-20T04:29:41.328Z,0.00
2022-09-20T04:30:41.312Z,0.00
2022-09-20T04:31:41.543Z,0.00
2022-09-20T04:32:41.312Z,0.00
2022-09-20T04:33:41.331Z,0.00
2022-09-20T04:34:42.263Z,0.00
2022-09-20T04:35:41.308Z,0.00
2022-09-20T04:36:41.332Z,0.00
2022-09-20T04:37:41.224Z,0.00
2022-09-20T04:38:41.240Z,0.00
2022-09-20T04:39:41.237Z,0.00
2022-09-20T04:40:41.257Z,0.00
2022-09-20T04:41:41.262Z,0.00
2022-09-20T04:42:41.191Z,0.00
2022-09-20T04:43:41.182Z,0.00
2022-09-20T04:44:41.198Z,0.00
2022-09-20T04:45:41.244Z,0.00
2022-09-20T04:46:41.857Z,0.00
2022-09-20T04:47:41.163Z,0.00
2022-09-20T04:48:41.166Z,0.00
2022-09-20T04:49:41.169Z,0.00
2022-09-20T04:50:41.225Z,0.00
2022-09-20T04:51:41.169Z,0.00
2022-09-20T04:52:41.146Z,0.00
2022-09-20T04:53:41.742Z,0.00
2022-09-20T04:54:41.901Z,0.00
2022-09-20T04:55:41.139Z,0.00
2022-09-20T04:56:41.101Z,0.00
2022-09-20T04:57:41.165Z,0.00
2022-09-20T04:58:41.285Z,0.00
2022-09-20T04:59:41.208Z,0.00
2022-09-20T05:00:41.454Z,0.00
2022-09-20T05:01:41.200Z,0.00
2022-09-20T05:02:41.380Z,0.00
2022-09-20T05:03:41.171Z,0.00
2022-09-20T05:04:41.039Z,0.00
2022-09-20T05:05:41.039Z,0.00
2022-09-20T05:06:41.043Z,0.00
2022-09-20T05:07:41.068Z,0.00
2022-09-20T05:08:41.043Z,0.00
2022-09-20T05:09:41.011Z,0.00
2022-09-20T05:10:41.011Z,0.00
2022-09-20T05:11:41.047Z,0.00
2022-09-20T05:12:40.991Z,5.62
2022-09-20T05:13:40.979Z,5.62
2022-09-20T05:14:40.976Z,5.62
2022-09-20T05:15:40.978Z,5.62
2022-09-20T05:16:43.375Z,5.62
2022-09-20T05:17:40.947Z,5.62
2022-09-20T05:18:40.972Z,5.62
2022-09-20T05:19:40.931Z,5.62
2022-09-20T05:20:40.948Z,5.62
2022-09-20T05:21:40.931Z,11.25
2022-09-20T05:22:40.934Z,11.25
2022-09-20T05:23:41.959Z,11.25
2022-09-20T05:24:40.914Z,11.25
2022-09-20T05:25:40.914Z,11.25
2022-09-20T05:26:40.948Z,11.25
2022-09-20T05:27:40.900Z,16.88
2022-09-20T05:28:40.926Z,16.88
2022-09-20T05:29:41.871Z,16.88
2022-09-20T05:30:40.897Z,16.88
2022-09-20T05:31:40.906Z,16.88
2022-09-20T05:32:40.879Z,16.88
2022-09-20T05:33:40.890Z,16.88
2022-09-20T05:34:40.847Z,16.88
2022-09-20T05:35:40.839Z,16.88
2022-09-20T05:36:40.827Z,11.25
2022-09-20T05:37:40.836Z,11.25
2022-09-20T05:38:40.870Z,16.88
2022-09-20T05:39:40.818Z,16.88
2022-09-20T05:40:40.799Z,16.88
2022-09-20T05:41:40.823Z,16.88
2022-09-20T05:42:40.803Z,16.88
2022-09-20T05:43:40.783Z,16.88
2022-09-20T05:44:40.781Z,16.88
2022-09-20T05:45:40.807Z,11.25
2022-09-20T05:46:40.763Z,11.25
2022-09-20T05:47:40.786Z,11.25
2022-09-20T05:48:40.751Z,11.25
2022-09-20T05:49:40.739Z,11.25
2022-09-20T05:50:40.746Z,11.25
2022-09-20T05:51:40.730Z,11.25
2022-09-20T05:52:40.726Z,11.25
2022-09-20T05:53:40.734Z,11.25
2022-09-20T05:54:40.712Z,11.25
2022-09-20T05:55:40.718Z,11.25
2022-09-20T05:56:40.713Z,11.25
2022-09-20T05:57:40.707Z,11.25
2022-09-20T05:58:40.702Z,16.88
2022-09-20T05:59:40.690Z,16.88
2022-09-20T06:00:40.670Z,16.88
2022-09-20T06:01:40.687Z,16.88
2022-09-20T06:02:40.708Z,16.88
2022-09-20T06:03:40.682Z,16.88
2022-09-20T06:04:40.643Z,16.88
2022-09-20T06:05:40.635Z,16.88
2022-09-20T06:06:40.675Z,16.88
2022-09-20T06:07:40.616Z,16.88
2022-09-20T06:08:40.628Z,16.88
2022-09-20T06:09:40.602Z,16.88
2022-09-20T06:10:40.594Z,22.50
2022-09-20T06:11:42.131Z,22.50
2022-09-20T06:12:40.626Z,22.50
2022-09-20T06:13:40.611Z,22.50
2022-09-20T06:14:40.574Z,22.50
2022-09-20T06:15:40.562Z,22.50
2022-09-20T06:16:40.609Z,22.50
2022-09-20T06:17:40.546Z,22.50
2022-09-20T06:18:40.547Z,22.50
2022-09-20T06:19:40.559Z,22.50
2022-09-20T06:20:40.524Z,22.50
2022-09-20T06:21:40.519Z,28.12
2022-09-20T06:22:40.518Z,28.12
2022-09-20T06:23:40.559Z,28.12
2022-09-20T06:24:40.531Z,28.12
2022-09-20T06:25:40.503Z,28.12
2022-09-20T06:26:40.491Z,22.50
2022-09-20T06:27:40.486Z,22.50
2022-09-20T06:28:40.506Z,22.50
2022-09-20T06:29:40.557Z,22.50
2022-09-20T06:30:41.540Z,22.50
2022-09-20T06:31:40.476Z,28.12
2022-09-20T06:32:40.466Z,28.12
2022-09-20T06:33:40.611Z,28.12
2022-09-20T06:34:40.462Z,33.75
2022-09-20T06:35:40.447Z,39.38
2022-09-20T06:36:40.486Z,39.38
2022-09-20T06:37:40.422Z,39.38
2022-09-20T06:38:40.415Z,33.75
2022-09-20T06:39:40.510Z,33.75
2022-09-20T06:40:41.343Z,33.75
2022-09-20T06:41:40.403Z,33.75
2022-09-20T06:42:40.470Z,33.75
2022-09-20T06:43:40.397Z,33.75
2022-09-20T06:44:40.383Z,28.12
2022-09-20T06:45:40.551Z,28.12
2022-09-20T06:46:40.371Z,28.12
2022-09-20T06:47:40.360Z,33.75
2022-09-20T06:48:40.351Z,33.75
2022-09-20T06:49:40.380Z,33.75
2022-09-20T06:50:40.350Z,39.38
2022-09-20T06:51:40.342Z,39.38
2022-09-20T06:52:40.468Z,45.00
2022-09-20T06:53:40.331Z,50.62
2022-09-20T06:54:40.338Z,56.25
2022-09-20T06:55:40.330Z,61.88
2022-09-20T06:56:40.322Z,67.50
2022-09-20T06:57:40.286Z,90.00
2022-09-20T06:58:40.270Z,129.38
2022-09-20T06:59:40.319Z,140.62
2022-09-20T07:00:40.257Z,112.50
2022-09-20T07:01:40.332Z,95.62
2022-09-20T07:02:40.322Z,95.62
2022-09-20T07:03:40.250Z,95.62
2022-09-20T07:04:40.249Z,123.75
2022-09-20T07:05:40.231Z,140.62
2022-09-20T07:06:40.231Z,123.75
2022-09-20T07:07:41.302Z,112.50
2022-09-20T07:08:40.216Z,112.50
2022-09-20T07:09:40.203Z,112.50
2022-09-20T07:10:40.314Z,118.12
2022-09-20T07:11:40.206Z,129.38
2022-09-20T07:12:40.182Z,140.62
2022-09-20T07:13:40.274Z,163.12
2022-09-20T07:14:40.172Z,191.25
2022-09-20T07:15:40.163Z,230.62
2022-09-20T07:16:40.283Z,264.38
2022-09-20T07:17:40.247Z,292.50
2022-09-20T07:18:40.155Z,292.50
2022-09-20T07:19:40.135Z,298.12
2022-09-20T07:20:40.126Z,303.75
2022-09-20T07:21:40.126Z,292.50
2022-09-20T07:22:40.149Z,286.88
2022-09-20T07:23:40.118Z,292.50
2022-09-20T07:24:40.111Z,309.38
2022-09-20T07:25:40.090Z,309.38
2022-09-20T07:26:40.078Z,303.75
2022-09-20T07:27:40.107Z,286.88
2022-09-20T07:28:40.070Z,270.00
2022-09-20T07:29:40.098Z,258.75
2022-09-20T07:30:40.083Z,241.88
2022-09-20T07:31:40.094Z,208.12
2022-09-20T07:32:40.060Z,196.88
2022-09-20T07:33:40.066Z,180.00
2022-09-20T07:34:40.035Z,168.75
2022-09-20T07:35:40.027Z,157.50
2022-09-20T07:36:40.030Z,123.75
2022-09-20T07:37:40.027Z,106.88
2022-09-20T07:38:40.018Z,101.25
2022-09-20T07:39:40.050Z,101.25
2022-09-20T07:40:40.042Z,106.88
2022-09-20T07:41:39.982Z,106.88
2022-09-20T07:42:39.993Z,95.62
2022-09-20T07:43:39.991Z,95.62
2022-09-20T07:44:39.963Z,95.62
2022-09-20T07:45:39.973Z,101.25
2022-09-20T07:46:39.946Z,118.12
2022-09-20T07:47:39.942Z,118.12
2022-09-20T07:48:39.974Z,106.88
2022-09-20T07:49:39.954Z,101.25
2022-09-20T07:50:39.918Z,101.25
2022-09-20T07:51:39.916Z,101.25
2022-09-20T07:52:39.934Z,112.50
2022-09-20T07:53:39.914Z,118.12
2022-09-20T07:54:39.884Z,123.75
2022-09-20T07:55:39.891Z,129.38
2022-09-20T07:56:39.891Z,146.25
2022-09-20T07:57:39.871Z,191.25
2022-09-20T07:58:39.907Z,236.25
2022-09-20T07:59:39.850Z,275.62
2022-09-20T08:00:39.852Z,315.00
2022-09-20T08:01:39.952Z,343.12
2022-09-20T08:02:39.887Z,382.50
2022-09-20T08:04:06.299Z,568.12
2022-09-20T08:04:39.813Z,427.50
2022-09-20T08:05:39.827Z,450.00
2022-09-20T08:06:39.802Z,495.00
2022-09-20T08:07:39.858Z,455.62
2022-09-20T08:08:39.778Z,337.50
2022-09-20T08:09:39.788Z,320.62
2022-09-20T08:10:39.818Z,360.00
2022-09-20T08:11:39.815Z,410.62
2022-09-20T08:14:42.138Z,433.12
2022-09-20T08:15:39.778Z,286.88
2022-09-20T08:16:39.837Z,219.38
2022-09-20T08:17:39.739Z,196.88
2022-09-20T08:18:39.722Z,253.12
2022-09-20T08:19:39.734Z,303.75
2022-09-20T08:20:39.714Z,213.75
2022-09-20T08:21:39.706Z,213.75
2022-09-20T08:22:39.703Z,230.62
2022-09-20T08:23:39.695Z,241.88
2022-09-20T08:24:39.706Z,236.25
2022-09-20T08:25:39.723Z,253.12
2022-09-20T08:26:39.727Z,236.25
2022-09-20T08:27:39.658Z,236.25
2022-09-20T08:28:39.662Z,225.00
2022-09-20T08:29:39.686Z,174.38
2022-09-20T08:30:39.642Z,135.00
2022-09-20T08:31:39.769Z,146.25
2022-09-20T08:32:39.629Z,140.62
2022-09-20T08:33:39.619Z,112.50
2022-09-20T08:34:39.677Z,123.75
2022-09-20T08:35:39.610Z,157.50
2022-09-20T08:36:39.670Z,151.88
2022-09-20T08:37:40.250Z,135.00
2022-09-20T08:39:59.026Z,157.50
2022-09-20T08:40:41.776Z,174.38
2022-09-20T08:41:39.666Z,174.38
2022-09-20T08:42:44.418Z,180.00
2022-09-20T08:43:45.677Z,208.12
2022-09-20T08:44:45.280Z,286.88
2022-09-20T08:45:40.787Z,315.00
2022-09-20T08:46:39.551Z,286.88
2022-09-20T08:47:39.620Z,241.88
2022-09-20T08:48:39.795Z,219.38
2022-09-20T08:49:40.518Z,196.88
2022-09-20T08:50:40.443Z,196.88
2022-09-20T08:51:40.559Z,202.50
2022-09-20T08:52:40.969Z,213.75
2022-09-20T08:53:39.502Z,219.38
2022-09-20T08:54:39.518Z,219.38
2022-09-20T08:55:39.524Z,225.00
2022-09-20T08:56:39.620Z,247.50
2022-09-20T08:57:39.483Z,286.88
2022-09-20T08:58:39.494Z,360.00
2022-09-20T08:59:39.455Z,2559.38
2022-09-20T09:00:39.467Z,2570.62
2022-09-20T09:01:39.438Z,2750.62
2022-09-20T09:02:39.520Z,1530.00
2022-09-20T09:03:39.438Z,843.75
2022-09-20T09:04:39.463Z,2295.00
2022-09-20T09:05:39.419Z,675.00
2022-09-20T09:06:39.427Z,2463.75
2022-09-20T09:07:39.413Z,1665.00
2022-09-20T09:08:39.424Z,1850.62
2022-09-20T09:09:39.427Z,534.38
2022-09-20T09:10:42.832Z,427.50
2022-09-20T09:11:45.844Z,450.00
2022-09-20T09:12:40.387Z,545.62
2022-09-20T09:13:39.374Z,1040.62
2022-09-20T09:14:39.357Z,1119.38
2022-09-20T09:15:39.359Z,1659.38
2022-09-20T09:16:39.397Z,2559.38
2022-09-20T09:17:39.338Z,2598.75
2022-09-20T09:18:39.372Z,2002.50
2022-09-20T09:19:39.322Z,2317.50
2022-09-20T09:20:39.310Z,1524.38
2022-09-20T09:21:39.399Z,2896.88
2022-09-20T09:22:39.303Z,3020.62
2022-09-20T09:23:39.791Z,877.50
2022-09-20T09:24:39.322Z,1811.25
2022-09-20T09:25:39.302Z,821.25
2022-09-20T09:26:39.912Z,961.88
2022-09-20T09:27:39.267Z,748.12
2022-09-20T09:28:39.266Z,545.62
2022-09-20T09:29:39.266Z,455.62
2022-09-20T09:30:39.265Z,433.12
2022-09-20T09:31:39.257Z,472.50
2022-09-20T09:32:39.239Z,1681.88
2022-09-20T09:33:39.234Z,635.62
2022-09-20T09:34:39.246Z,939.38
2022-09-20T09:35:39.219Z,1023.75
2022-09-20T09:36:39.218Z,2221.88
2022-09-20T09:37:39.222Z,2250.00
2022-09-20T09:38:39.206Z,579.38
2022-09-20T09:39:39.198Z,489.38
2022-09-20T09:40:39.238Z,427.50
2022-09-20T09:41:39.182Z,393.75
2022-09-20T09:42:39.170Z,354.38
2022-09-20T09:43:39.170Z,315.00
2022-09-20T09:44:39.229Z,253.12
2022-09-20T09:45:39.344Z,196.88
2022-09-20T09:46:39.138Z,151.88
2022-09-20T09:47:39.142Z,129.38
2022-09-20T09:48:40.222Z,118.12
2022-09-20T09:49:40.169Z,123.75
2022-09-20T09:50:39.168Z,129.38
2022-09-20T09:51:39.144Z,140.62
2022-09-20T09:52:39.115Z,157.50
2022-09-20T09:53:39.148Z,185.62
2022-09-20T09:54:39.108Z,208.12
2022-09-20T09:55:39.115Z,225.00
2022-09-20T09:56:39.105Z,236.25
2022-09-20T09:57:39.131Z,241.88
2022-09-20T09:58:39.080Z,253.12
2022-09-20T09:59:39.083Z,264.38
2022-09-20T10:00:39.083Z,281.25
2022-09-20T10:01:39.091Z,309.38
2022-09-20T10:02:39.115Z,320.62
2022-09-20T10:03:39.082Z,348.75
2022-09-20T10:04:39.041Z,337.50
2022-09-20T10:05:39.040Z,343.12
2022-09-20T10:06:39.055Z,399.38
2022-09-20T10:07:39.016Z,500.62
2022-09-20T10:08:39.026Z,635.62
2022-09-20T10:09:39.016Z,2047.50
2022-09-20T10:10:39.026Z,3093.75
2022-09-20T10:11:38.999Z,1468.12
2022-09-20T10:12:38.970Z,2570.62
2022-09-20T10:13:40.810Z,1991.25
2022-09-20T10:14:40.000Z,1642.50
2022-09-20T10:15:38.955Z,3408.75
2022-09-20T10:16:39.026Z,3510.00
2022-09-20T10:17:38.998Z,849.38
2022-09-20T10:18:38.922Z,843.75
2022-09-20T10:19:38.930Z,939.38
2022-09-20T10:20:38.955Z,585.00
2022-09-20T10:21:38.940Z,478.12
2022-09-20T10:22:38.940Z,421.88
2022-09-20T10:24:02.074Z,388.12
2022-09-20T10:24:40.903Z,360.00
2022-09-20T10:25:38.976Z,320.62
2022-09-20T10:26:38.904Z,298.12
2022-09-20T10:27:38.880Z,270.00
2022-09-20T10:28:38.940Z,253.12
2022-09-20T10:29:39.868Z,247.50
2022-09-20T10:30:38.918Z,247.50
2022-09-20T10:31:38.887Z,253.12
2022-09-20T10:32:39.855Z,264.38
2022-09-20T10:33:38.864Z,281.25
2022-09-20T10:34:38.861Z,326.25
2022-09-20T10:35:38.866Z,382.50
2022-09-20T10:36:38.901Z,466.88
2022-09-20T10:37:38.848Z,556.88
2022-09-20T10:38:38.928Z,630.00
2022-09-20T10:39:38.811Z,607.50
2022-09-20T10:40:38.901Z,646.88
2022-09-20T10:41:38.795Z,675.00
2022-09-20T10:42:38.785Z,675.00
2022-09-20T10:43:38.847Z,663.75
2022-09-20T10:44:38.768Z,675.00
2022-09-20T10:46:14.533Z,601.88
2022-09-20T10:46:40.867Z,568.12
2022-09-20T10:47:38.795Z,545.62
2022-09-20T10:48:38.748Z,540.00
2022-09-20T10:49:38.779Z,534.38
2022-09-20T10:50:38.739Z,517.50
2022-09-20T10:51:38.783Z,517.50
2022-09-20T10:52:38.836Z,517.50
2022-09-20T10:53:38.715Z,928.12
2022-09-20T10:54:38.711Z,528.75
2022-09-20T10:55:38.712Z,540.00
2022-09-20T10:56:38.752Z,601.88
2022-09-20T10:57:41.151Z,770.62
2022-09-20T10:58:38.685Z,2829.38
2022-09-20T10:59:38.788Z,2711.25
2022-09-20T11:00:40.041Z,3448.12
2022-09-20T11:01:38.748Z,2486.25
2022-09-20T11:02:38.734Z,1676.25
2022-09-20T11:03:38.664Z,3408.75
2022-09-20T11:04:38.676Z,3099.38
2022-09-20T11:05:38.639Z,3043.12
2022-09-20T11:06:38.653Z,3105.00
2022-09-20T11:07:38.618Z,3121.88
2022-09-20T11:08:38.828Z,3195.00
2022-09-20T11:09:38.632Z,3718.12
2022-09-20T11:10:38.629Z,3673.12
2022-09-20T11:11:38.612Z,3718.12
2022-09-20T11:12:38.581Z,3538.12
2022-09-20T11:13:38.652Z,2688.75
2022-09-20T11:14:38.593Z,1400.62
2022-09-20T11:15:38.641Z,1243.12
2022-09-20T11:16:38.656Z,1006.88
2022-09-20T11:17:38.552Z,877.50
2022-09-20T11:18:38.549Z,866.25
2022-09-20T11:19:38.544Z,787.50
2022-09-20T11:20:38.551Z,630.00
2022-09-20T11:21:38.536Z,556.88
2022-09-20T11:22:38.520Z,472.50
2022-09-20T11:23:38.568Z,438.75
2022-09-20T11:24:38.518Z,433.12
2022-09-20T11:25:38.549Z,500.62
2022-09-20T11:26:38.505Z,416.25
2022-09-20T11:27:38.529Z,450.00
2022-09-20T11:28:38.484Z,843.75
2022-09-20T11:29:38.488Z,1659.38
2022-09-20T11:30:38.493Z,900.00
2022-09-20T11:31:38.575Z,1355.62
2022-09-20T11:32:38.504Z,1743.75
2022-09-20T11:33:41.455Z,2390.62
2022-09-20T11:34:39.452Z,1428.75
2022-09-20T11:35:38.643Z,1192.50
2022-09-20T11:36:39.368Z,855.00
2022-09-20T11:37:38.424Z,658.12
2022-09-20T11:38:38.444Z,579.38
2022-09-20T11:39:38.404Z,523.12
2022-09-20T11:40:38.485Z,489.38
2022-09-20T11:41:38.539Z,483.75
2022-09-20T11:42:38.392Z,517.50
2022-09-20T11:43:38.382Z,500.62
2022-09-20T11:44:38.448Z,489.38
2022-09-20T11:45:38.397Z,472.50
2022-09-20T11:46:38.351Z,461.25
2022-09-20T11:47:53.850Z,478.12
2022-09-20T11:48:40.352Z,421.88
2022-09-20T11:49:38.348Z,399.38
2022-09-20T11:50:38.444Z,371.25
2022-09-20T11:51:38.468Z,343.12
2022-09-20T11:52:38.340Z,315.00
2022-09-20T11:53:38.347Z,309.38
2022-09-20T11:54:38.351Z,303.75
2022-09-20T11:55:38.335Z,298.12
2022-09-20T11:56:38.356Z,309.38
2022-09-20T11:57:38.293Z,326.25
2022-09-20T11:58:38.332Z,348.75
2022-09-20T11:59:38.276Z,371.25
2022-09-20T12:00:38.296Z,405.00
2022-09-20T12:01:38.320Z,528.75
2022-09-20T12:02:38.419Z,894.38
2022-09-20T12:03:38.321Z,2160.00
2022-09-20T12:04:38.625Z,2823.75
2022-09-20T12:05:38.322Z,2649.38
2022-09-20T12:06:38.248Z,2733.75
2022-09-20T12:07:38.696Z,2964.38
2022-09-20T12:08:38.223Z,3020.62
2022-09-20T12:09:38.215Z,2868.75
2022-09-20T12:10:38.272Z,2880.00
2022-09-20T12:11:38.213Z,3088.12
2022-09-20T12:12:38.216Z,2975.62
2022-09-20T12:13:38.229Z,2334.38
2022-09-20T12:14:38.805Z,2896.88
2022-09-20T12:15:38.199Z,1479.38
2022-09-20T12:16:38.271Z,1096.88
2022-09-20T12:17:38.159Z,826.88
2022-09-20T12:18:38.235Z,990.00
2022-09-20T12:19:38.161Z,1794.38
2022-09-20T12:20:38.178Z,2655.00
2022-09-20T12:21:38.164Z,1102.50
2022-09-20T12:22:38.138Z,1125.00
2022-09-20T12:23:38.146Z,748.12
2022-09-20T12:24:41.980Z,708.75
2022-09-20T12:25:39.155Z,697.50
2022-09-20T12:26:38.184Z,663.75
2022-09-20T12:27:38.115Z,658.12
2022-09-20T12:28:38.097Z,686.25
2022-09-20T12:29:38.355Z,731.25
2022-09-20T12:30:38.090Z,1147.50
2022-09-20T12:31:38.132Z,742.50
2022-09-20T12:32:38.064Z,731.25
2022-09-20T12:33:38.070Z,720.00
2022-09-20T12:34:38.054Z,697.50
2022-09-20T12:35:38.051Z,658.12
2022-09-20T12:36:38.058Z,624.38
2022-09-20T12:37:38.098Z,556.88
2022-09-20T12:38:38.025Z,511.88
2022-09-20T12:39:38.027Z,472.50
2022-09-20T12:40:38.131Z,444.38
2022-09-20T12:41:38.059Z,410.62
2022-09-20T12:42:38.035Z,399.38
2022-09-20T12:43:38.018Z,399.38
2022-09-20T12:44:37.987Z,399.38
2022-09-20T12:45:38.002Z,405.00
2022-09-20T12:46:38.137Z,405.00
2022-09-20T12:47:37.983Z,410.62
2022-09-20T12:48:37.956Z,416.25
2022-09-20T12:49:37.995Z,427.50
2022-09-20T12:50:37.952Z,455.62
2022-09-20T12:51:37.975Z,900.00
2022-09-20T12:52:37.951Z,1293.75